sensor_id;sensor_type;location;lat;lon;timestamp;P1;durP1;ratioP1;P2;durP2;ratioP2
76107;SDS011;64834;52.516;10.528;2023-05-17T00:01:08;7.65;;;2.38;;
76107;SDS011;64834;52.516;10.528;2023-05-17T00:03:33;4.55;;;1.92;;
76107;SDS011;64834;52.516;10.528;2023-05-17T00:05:58;7.28;;;2.15;;
76107;SDS011;64834;52.516;10.528;2023-05-17T00:08:24;7.78;;;2.28;;
76107;SDS011;64834;52.516;10.528;2023-05-17T00:10:49;7.82;;;2.13;;
76107;SDS011;64834;52.516;10.528;2023-05-17T00:13:14;8.48;;;2.17;;
76107;SDS011;64834;52.516;10.528;2023-05-17T00:15:40;8.73;;;2.33;;
76107;SDS011;64834;52.516;10.528;2023-05-17T00:18:05;6.07;;;1.95;;
76107;SDS011;64834;52.516;10.528;2023-05-17T00:20:30;9.52;;;2.72;;
76107;SDS011;64834;52.516;10.528;2023-05-17T00:22:56;8.52;;;1.80;;
76107;SDS011;64834;52.516;10.528;2023-05-17T00:25:21;7.55;;;2.05;;
76107;SDS011;64834;52.516;10.528;2023-05-17T00:27:46;7.80;;;2.22;;
76107;SDS011;64834;52.516;10.528;2023-05-17T00:30:12;5.95;;;2.30;;
76107;SDS011;64834;52.516;10.528;2023-05-17T00:32:38;7.00;;;2.35;;
76107;SDS011;64834;52.516;10.528;2023-05-17T00:35:04;8.00;;;2.30;;
76107;SDS011;64834;52.516;10.528;2023-05-17T00:37:29;9.35;;;2.85;;
76107;SDS011;64834;52.516;10.528;2023-05-17T00:39:54;6.22;;;2.00;;
76107;SDS011;64834;52.516;10.528;2023-05-17T00:42:20;6.20;;;2.38;;
76107;SDS011;64834;52.516;10.528;2023-05-17T00:44:45;7.90;;;2.00;;
76107;SDS011;64834;52.516;10.528;2023-05-17T00:47:10;12.25;;;3.72;;
76107;SDS011;64834;52.516;10.528;2023-05-17T00:49:36;13.25;;;2.33;;
76107;SDS011;64834;52.516;10.528;2023-05-17T00:52:01;10.32;;;2.95;;
76107;SDS011;64834;52.516;10.528;2023-05-17T00:54:27;6.45;;;2.42;;
76107;SDS011;64834;52.516;10.528;2023-05-17T00:56:54;9.35;;;3.30;;
76107;SDS011;64834;52.516;10.528;2023-05-17T00:59:21;5.80;;;1.90;;
76107;SDS011;64834;52.516;10.528;2023-05-17T01:01:47;7.85;;;2.50;;
76107;SDS011;64834;52.516;10.528;2023-05-17T01:04:12;5.00;;;2.10;;
76107;SDS011;64834;52.516;10.528;2023-05-17T01:06:38;8.00;;;2.05;;
76107;SDS011;64834;52.516;10.528;2023-05-17T01:09:03;7.70;;;2.40;;
76107;SDS011;64834;52.516;10.528;2023-05-17T01:17:33;7.85;;;2.30;;
76107;SDS011;64834;52.516;10.528;2023-05-17T01:20:17;7.15;;;1.88;;
76107;SDS011;64834;52.516;10.528;2023-05-17T01:28:16;7.82;;;2.40;;
76107;SDS011;64834;52.516;10.528;2023-05-17T01:30:45;7.90;;;2.30;;
76107;SDS011;64834;52.516;10.528;2023-05-17T01:33:13;6.93;;;2.05;;
76107;SDS011;64834;52.516;10.528;2023-05-17T01:35:40;11.45;;;2.85;;
76107;SDS011;64834;52.516;10.528;2023-05-17T01:38:05;10.40;;;2.53;;
76107;SDS011;64834;52.516;10.528;2023-05-17T01:40:32;7.25;;;2.40;;
76107;SDS011;64834;52.516;10.528;2023-05-17T01:43:21;6.07;;;2.53;;
76107;SDS011;64834;52.516;10.528;2023-05-17T01:46:06;10.20;;;2.65;;
76107;SDS011;64834;52.516;10.528;2023-05-17T01:48:42;6.10;;;2.20;;
76107;SDS011;64834;52.516;10.528;2023-05-17T01:51:13;6.22;;;2.15;;
76107;SDS011;64834;52.516;10.528;2023-05-17T01:53:45;7.35;;;2.35;;
76107;SDS011;64834;52.516;10.528;2023-05-17T01:56:19;7.13;;;2.25;;
76107;SDS011;64834;52.516;10.528;2023-05-17T01:58:50;10.30;;;2.67;;
76107;SDS011;64834;52.516;10.528;2023-05-17T02:01:17;7.75;;;2.58;;
76107;SDS011;64834;52.516;10.528;2023-05-17T02:03:47;5.22;;;1.90;;
76107;SDS011;64834;52.516;10.528;2023-05-17T02:06:13;6.07;;;2.05;;
76107;SDS011;64834;52.516;10.528;2023-05-17T02:08:39;7.07;;;2.03;;
76107;SDS011;64834;52.516;10.528;2023-05-17T02:11:04;6.90;;;2.22;;
76107;SDS011;64834;52.516;10.528;2023-05-17T02:13:30;8.60;;;2.47;;
76107;SDS011;64834;52.516;10.528;2023-05-17T02:15:58;9.20;;;2.42;;
76107;SDS011;64834;52.516;10.528;2023-05-17T02:18:27;7.60;;;2.30;;
76107;SDS011;64834;52.516;10.528;2023-05-17T02:20:53;8.00;;;2.60;;
76107;SDS011;64834;52.516;10.528;2023-05-17T02:23:18;7.78;;;2.45;;
76107;SDS011;64834;52.516;10.528;2023-05-17T02:25:43;8.32;;;2.85;;
76107;SDS011;64834;52.516;10.528;2023-05-17T02:28:09;10.80;;;2.25;;
76107;SDS011;64834;52.516;10.528;2023-05-17T02:30:34;7.50;;;2.88;;
76107;SDS011;64834;52.516;10.528;2023-05-17T02:32:59;8.43;;;2.88;;
76107;SDS011;64834;52.516;10.528;2023-05-17T02:35:25;9.27;;;2.50;;
76107;SDS011;64834;52.516;10.528;2023-05-17T02:37:50;9.80;;;3.28;;
76107;SDS011;64834;52.516;10.528;2023-05-17T02:40:16;7.90;;;2.50;;
76107;SDS011;64834;52.516;10.528;2023-05-17T02:42:41;8.55;;;2.58;;
76107;SDS011;64834;52.516;10.528;2023-05-17T02:45:07;7.22;;;3.25;;
76107;SDS011;64834;52.516;10.528;2023-05-17T02:47:32;12.48;;;3.05;;
76107;SDS011;64834;52.516;10.528;2023-05-17T02:49:57;9.98;;;2.65;;
76107;SDS011;64834;52.516;10.528;2023-05-17T02:52:23;7.93;;;2.83;;
76107;SDS011;64834;52.516;10.528;2023-05-17T02:54:48;9.32;;;2.92;;
76107;SDS011;64834;52.516;10.528;2023-05-17T02:57:13;9.63;;;2.88;;
76107;SDS011;64834;52.516;10.528;2023-05-17T02:59:39;8.32;;;2.78;;
76107;SDS011;64834;52.516;10.528;2023-05-17T03:02:04;8.20;;;2.55;;
76107;SDS011;64834;52.516;10.528;2023-05-17T03:04:30;8.07;;;3.00;;
76107;SDS011;64834;52.516;10.528;2023-05-17T03:06:56;10.50;;;3.38;;
76107;SDS011;64834;52.516;10.528;2023-05-17T03:09:21;10.10;;;2.80;;
76107;SDS011;64834;52.516;10.528;2023-05-17T03:11:47;10.63;;;2.63;;
76107;SDS011;64834;52.516;10.528;2023-05-17T03:14:12;10.02;;;2.80;;
76107;SDS011;64834;52.516;10.528;2023-05-17T03:16:38;11.50;;;3.30;;
76107;SDS011;64834;52.516;10.528;2023-05-17T03:19:03;11.80;;;2.63;;
76107;SDS011;64834;52.516;10.528;2023-05-17T03:21:29;9.13;;;2.90;;
76107;SDS011;64834;52.516;10.528;2023-05-17T03:23:54;7.88;;;2.95;;
76107;SDS011;64834;52.516;10.528;2023-05-17T03:26:19;12.05;;;4.15;;
76107;SDS011;64834;52.516;10.528;2023-05-17T03:28:44;9.68;;;3.95;;
76107;SDS011;64834;52.516;10.528;2023-05-17T03:31:10;8.82;;;2.95;;
76107;SDS011;64834;52.516;10.528;2023-05-17T03:33:36;13.43;;;3.55;;
76107;SDS011;64834;52.516;10.528;2023-05-17T03:36:01;9.05;;;3.42;;
76107;SDS011;64834;52.516;10.528;2023-05-17T03:38:27;8.95;;;3.20;;
76107;SDS011;64834;52.516;10.528;2023-05-17T03:40:53;6.80;;;3.30;;
76107;SDS011;64834;52.516;10.528;2023-05-17T03:43:18;18.25;;;3.90;;
76107;SDS011;64834;52.516;10.528;2023-05-17T03:45:43;9.25;;;3.40;;
76107;SDS011;64834;52.516;10.528;2023-05-17T03:48:09;11.25;;;3.05;;
76107;SDS011;64834;52.516;10.528;2023-05-17T03:50:34;14.02;;;3.33;;
76107;SDS011;64834;52.516;10.528;2023-05-17T03:52:59;15.70;;;3.72;;
76107;SDS011;64834;52.516;10.528;2023-05-17T03:55:25;12.57;;;3.45;;
76107;SDS011;64834;52.516;10.528;2023-05-17T03:57:50;9.60;;;3.67;;
76107;SDS011;64834;52.516;10.528;2023-05-17T04:00:15;14.23;;;3.40;;
76107;SDS011;64834;52.516;10.528;2023-05-17T04:02:46;9.88;;;3.78;;
76107;SDS011;64834;52.516;10.528;2023-05-17T04:05:15;9.63;;;2.70;;
76107;SDS011;64834;52.516;10.528;2023-05-17T04:07:40;7.53;;;3.00;;
76107;SDS011;64834;52.516;10.528;2023-05-17T04:10:05;14.57;;;4.15;;
76107;SDS011;64834;52.516;10.528;2023-05-17T04:12:32;13.38;;;2.60;;
76107;SDS011;64834;52.516;10.528;2023-05-17T04:14:57;8.80;;;2.60;;
76107;SDS011;64834;52.516;10.528;2023-05-17T04:17:22;4.47;;;2.28;;
76107;SDS011;64834;52.516;10.528;2023-05-17T04:19:48;12.00;;;3.22;;
76107;SDS011;64834;52.516;10.528;2023-05-17T04:22:13;9.75;;;2.85;;
76107;SDS011;64834;52.516;10.528;2023-05-17T04:24:38;15.93;;;3.45;;
76107;SDS011;64834;52.516;10.528;2023-05-17T04:27:03;11.63;;;3.13;;
76107;SDS011;64834;52.516;10.528;2023-05-17T04:29:30;10.00;;;3.40;;
76107;SDS011;64834;52.516;10.528;2023-05-17T04:31:56;9.35;;;2.85;;
76107;SDS011;64834;52.516;10.528;2023-05-17T04:34:21;16.58;;;3.60;;
76107;SDS011;64834;52.516;10.528;2023-05-17T04:36:47;4.03;;;1.75;;
76107;SDS011;64834;52.516;10.528;2023-05-17T04:39:13;13.93;;;3.40;;
76107;SDS011;64834;52.516;10.528;2023-05-17T04:41:38;9.82;;;3.42;;
76107;SDS011;64834;52.516;10.528;2023-05-17T04:44:04;10.80;;;3.25;;
76107;SDS011;64834;52.516;10.528;2023-05-17T04:46:30;12.05;;;3.00;;
76107;SDS011;64834;52.516;10.528;2023-05-17T04:48:56;6.60;;;2.45;;
76107;SDS011;64834;52.516;10.528;2023-05-17T04:51:21;6.53;;;2.80;;
76107;SDS011;64834;52.516;10.528;2023-05-17T04:56:22;8.32;;;2.25;;
76107;SDS011;64834;52.516;10.528;2023-05-17T04:58:47;7.00;;;2.33;;
76107;SDS011;64834;52.516;10.528;2023-05-17T05:01:13;7.82;;;2.65;;
76107;SDS011;64834;52.516;10.528;2023-05-17T05:03:38;12.18;;;2.60;;
76107;SDS011;64834;52.516;10.528;2023-05-17T05:06:03;5.15;;;2.00;;
76107;SDS011;64834;52.516;10.528;2023-05-17T05:08:29;26.38;;;3.10;;
76107;SDS011;64834;52.516;10.528;2023-05-17T05:10:54;9.35;;;2.47;;
76107;SDS011;64834;52.516;10.528;2023-05-17T05:13:20;12.65;;;2.75;;
76107;SDS011;64834;52.516;10.528;2023-05-17T05:15:46;6.85;;;1.85;;
76107;SDS011;64834;52.516;10.528;2023-05-17T05:18:12;11.15;;;3.05;;
76107;SDS011;64834;52.516;10.528;2023-05-17T05:20:37;6.53;;;2.15;;
76107;SDS011;64834;52.516;10.528;2023-05-17T05:23:02;13.48;;;2.50;;
76107;SDS011;64834;52.516;10.528;2023-05-17T05:25:29;13.25;;;3.03;;
76107;SDS011;64834;52.516;10.528;2023-05-17T05:27:55;7.82;;;2.35;;
76107;SDS011;64834;52.516;10.528;2023-05-17T05:30:20;5.85;;;1.40;;
76107;SDS011;64834;52.516;10.528;2023-05-17T05:32:49;9.95;;;1.98;;
76107;SDS011;64834;52.516;10.528;2023-05-17T05:35:15;8.57;;;1.80;;
76107;SDS011;64834;52.516;10.528;2023-05-17T05:37:41;8.68;;;2.20;;
76107;SDS011;64834;52.516;10.528;2023-05-17T05:40:07;8.80;;;3.03;;
76107;SDS011;64834;52.516;10.528;2023-05-17T05:42:34;7.13;;;1.70;;
76107;SDS011;64834;52.516;10.528;2023-05-17T05:44:59;5.53;;;1.48;;
76107;SDS011;64834;52.516;10.528;2023-05-17T05:47:24;11.32;;;2.35;;
76107;SDS011;64834;52.516;10.528;2023-05-17T05:49:50;10.70;;;1.65;;
76107;SDS011;64834;52.516;10.528;2023-05-17T05:52:15;7.13;;;1.88;;
76107;SDS011;64834;52.516;10.528;2023-05-17T05:54:40;8.43;;;1.80;;
76107;SDS011;64834;52.516;10.528;2023-05-17T05:57:06;6.90;;;1.77;;
76107;SDS011;64834;52.516;10.528;2023-05-17T05:59:31;9.68;;;1.88;;
76107;SDS011;64834;52.516;10.528;2023-05-17T06:01:56;5.00;;;1.00;;
76107;SDS011;64834;52.516;10.528;2023-05-17T06:04:22;8.07;;;1.00;;
76107;SDS011;64834;52.516;10.528;2023-05-17T06:06:48;9.30;;;1.02;;
76107;SDS011;64834;52.516;10.528;2023-05-17T06:09:14;9.20;;;2.20;;
76107;SDS011;64834;52.516;10.528;2023-05-17T06:11:39;6.88;;;1.48;;
76107;SDS011;64834;52.516;10.528;2023-05-17T06:14:05;5.35;;;1.38;;
76107;SDS011;64834;52.516;10.528;2023-05-17T06:16:30;4.93;;;1.17;;
76107;SDS011;64834;52.516;10.528;2023-05-17T06:18:55;10.98;;;1.63;;
76107;SDS011;64834;52.516;10.528;2023-05-17T06:21:21;10.93;;;1.42;;
76107;SDS011;64834;52.516;10.528;2023-05-17T06:23:46;2.83;;;0.90;;
76107;SDS011;64834;52.516;10.528;2023-05-17T06:26:12;11.20;;;1.25;;
76107;SDS011;64834;52.516;10.528;2023-05-17T06:28:38;8.52;;;1.48;;
76107;SDS011;64834;52.516;10.528;2023-05-17T06:31:03;7.07;;;1.27;;
76107;SDS011;64834;52.516;10.528;2023-05-17T06:33:29;6.28;;;1.13;;
76107;SDS011;64834;52.516;10.528;2023-05-17T06:35:54;8.27;;;1.45;;
76107;SDS011;64834;52.516;10.528;2023-05-17T06:38:20;5.38;;;1.15;;
76107;SDS011;64834;52.516;10.528;2023-05-17T06:40:46;7.63;;;1.02;;
76107;SDS011;64834;52.516;10.528;2023-05-17T06:43:11;7.32;;;1.10;;
76107;SDS011;64834;52.516;10.528;2023-05-17T06:45:36;5.40;;;0.80;;
76107;SDS011;64834;52.516;10.528;2023-05-17T06:48:02;5.30;;;1.10;;
76107;SDS011;64834;52.516;10.528;2023-05-17T06:50:27;5.70;;;1.02;;
76107;SDS011;64834;52.516;10.528;2023-05-17T06:52:53;5.05;;;1.13;;
76107;SDS011;64834;52.516;10.528;2023-05-17T06:55:18;9.93;;;1.50;;
76107;SDS011;64834;52.516;10.528;2023-05-17T06:57:43;6.93;;;0.80;;
76107;SDS011;64834;52.516;10.528;2023-05-17T07:00:09;6.22;;;0.70;;
76107;SDS011;64834;52.516;10.528;2023-05-17T07:02:35;5.63;;;1.13;;
76107;SDS011;64834;52.516;10.528;2023-05-17T07:05:01;8.93;;;1.05;;
76107;SDS011;64834;52.516;10.528;2023-05-17T07:07:29;5.07;;;0.93;;
76107;SDS011;64834;52.516;10.528;2023-05-17T07:09:55;1.80;;;0.77;;
76107;SDS011;64834;52.516;10.528;2023-05-17T07:12:20;1.60;;;0.60;;
76107;SDS011;64834;52.516;10.528;2023-05-17T07:14:45;5.50;;;1.50;;
76107;SDS011;64834;52.516;10.528;2023-05-17T07:17:11;6.25;;;0.85;;
76107;SDS011;64834;52.516;10.528;2023-05-17T07:19:36;4.28;;;1.10;;
76107;SDS011;64834;52.516;10.528;2023-05-17T07:22:01;5.07;;;0.82;;
76107;SDS011;64834;52.516;10.528;2023-05-17T07:24:27;8.95;;;0.95;;
76107;SDS011;64834;52.516;10.528;2023-05-17T07:26:52;3.70;;;0.47;;
76107;SDS011;64834;52.516;10.528;2023-05-17T07:29:17;7.88;;;1.05;;
76107;SDS011;64834;52.516;10.528;2023-05-17T07:31:42;9.85;;;1.33;;
76107;SDS011;64834;52.516;10.528;2023-05-17T07:34:08;4.85;;;0.73;;
76107;SDS011;64834;52.516;10.528;2023-05-17T07:36:33;7.65;;;1.15;;
76107;SDS011;64834;52.516;10.528;2023-05-17T07:38:59;4.90;;;0.93;;
76107;SDS011;64834;52.516;10.528;2023-05-17T07:41:24;5.60;;;0.85;;
76107;SDS011;64834;52.516;10.528;2023-05-17T07:43:51;9.55;;;1.33;;
76107;SDS011;64834;52.516;10.528;2023-05-17T07:46:16;6.97;;;1.20;;
76107;SDS011;64834;52.516;10.528;2023-05-17T07:48:42;6.72;;;1.05;;
76107;SDS011;64834;52.516;10.528;2023-05-17T07:51:07;7.28;;;1.20;;
76107;SDS011;64834;52.516;10.528;2023-05-17T07:53:32;3.90;;;0.55;;
76107;SDS011;64834;52.516;10.528;2023-05-17T07:55:58;11.00;;;1.10;;
76107;SDS011;64834;52.516;10.528;2023-05-17T07:58:23;5.10;;;0.80;;
76107;SDS011;64834;52.516;10.528;2023-05-17T08:00:48;7.93;;;0.93;;
76107;SDS011;64834;52.516;10.528;2023-05-17T08:03:14;5.13;;;0.60;;
76107;SDS011;64834;52.516;10.528;2023-05-17T08:05:39;6.22;;;1.27;;
76107;SDS011;64834;52.516;10.528;2023-05-17T08:08:05;2.70;;;0.50;;
76107;SDS011;64834;52.516;10.528;2023-05-17T08:10:30;6.78;;;0.98;;
76107;SDS011;64834;52.516;10.528;2023-05-17T08:12:56;8.57;;;1.13;;
76107;SDS011;64834;52.516;10.528;2023-05-17T08:15:21;5.32;;;0.70;;
76107;SDS011;64834;52.516;10.528;2023-05-17T08:17:46;8.50;;;0.90;;
76107;SDS011;64834;52.516;10.528;2023-05-17T08:20:12;5.25;;;0.63;;
76107;SDS011;64834;52.516;10.528;2023-05-17T08:22:37;3.25;;;0.70;;
76107;SDS011;64834;52.516;10.528;2023-05-17T08:25:03;7.03;;;1.10;;
76107;SDS011;64834;52.516;10.528;2023-05-17T08:27:28;2.25;;;0.75;;
76107;SDS011;64834;52.516;10.528;2023-05-17T08:29:56;4.55;;;1.25;;
76107;SDS011;64834;52.516;10.528;2023-05-17T08:32:22;4.88;;;1.00;;
76107;SDS011;64834;52.516;10.528;2023-05-17T08:34:47;5.10;;;0.65;;
76107;SDS011;64834;52.516;10.528;2023-05-17T08:37:13;2.83;;;0.60;;
76107;SDS011;64834;52.516;10.528;2023-05-17T08:39:38;4.50;;;0.60;;
76107;SDS011;64834;52.516;10.528;2023-05-17T08:42:06;8.80;;;0.95;;
76107;SDS011;64834;52.516;10.528;2023-05-17T08:44:32;2.20;;;0.50;;
76107;SDS011;64834;52.516;10.528;2023-05-17T08:46:57;8.18;;;0.90;;
76107;SDS011;64834;52.516;10.528;2023-05-17T08:49:24;7.05;;;1.50;;
76107;SDS011;64834;52.516;10.528;2023-05-17T08:51:54;4.38;;;1.00;;
76107;SDS011;64834;52.516;10.528;2023-05-17T08:54:23;3.45;;;0.60;;
76107;SDS011;64834;52.516;10.528;2023-05-17T08:56:48;8.10;;;0.82;;
76107;SDS011;64834;52.516;10.528;2023-05-17T08:59:18;7.47;;;1.08;;
76107;SDS011;64834;52.516;10.528;2023-05-17T09:01:43;6.50;;;1.20;;
76107;SDS011;64834;52.516;10.528;2023-05-17T09:04:13;9.27;;;1.05;;
76107;SDS011;64834;52.516;10.528;2023-05-17T09:06:40;6.25;;;1.00;;
76107;SDS011;64834;52.516;10.528;2023-05-17T09:09:07;7.72;;;1.20;;
76107;SDS011;64834;52.516;10.528;2023-05-17T09:11:33;4.97;;;0.93;;
76107;SDS011;64834;52.516;10.528;2023-05-17T09:13:59;3.00;;;0.55;;
76107;SDS011;64834;52.516;10.528;2023-05-17T09:16:36;5.88;;;1.00;;
76107;SDS011;64834;52.516;10.528;2023-05-17T09:19:06;14.18;;;1.23;;
76107;SDS011;64834;52.516;10.528;2023-05-17T09:21:32;10.63;;;1.00;;
76107;SDS011;64834;52.516;10.528;2023-05-17T09:23:58;5.22;;;1.30;;
76107;SDS011;64834;52.516;10.528;2023-05-17T09:26:25;5.07;;;0.57;;
76107;SDS011;64834;52.516;10.528;2023-05-17T09:29:01;5.53;;;1.08;;
76107;SDS011;64834;52.516;10.528;2023-05-17T09:31:32;6.53;;;1.35;;
76107;SDS011;64834;52.516;10.528;2023-05-17T09:33:58;6.10;;;0.93;;
76107;SDS011;64834;52.516;10.528;2023-05-17T09:36:23;6.20;;;1.33;;
76107;SDS011;64834;52.516;10.528;2023-05-17T09:38:53;4.95;;;1.10;;
76107;SDS011;64834;52.516;10.528;2023-05-17T09:41:18;6.38;;;1.00;;
76107;SDS011;64834;52.516;10.528;2023-05-17T09:43:44;7.28;;;0.95;;
76107;SDS011;64834;52.516;10.528;2023-05-17T09:46:10;3.42;;;0.52;;
76107;SDS011;64834;52.516;10.528;2023-05-17T09:48:37;5.30;;;0.90;;
76107;SDS011;64834;52.516;10.528;2023-05-17T09:51:02;5.70;;;0.98;;
76107;SDS011;64834;52.516;10.528;2023-05-17T09:53:31;7.05;;;1.30;;
76107;SDS011;64834;52.516;10.528;2023-05-17T09:56:01;6.18;;;1.10;;
76107;SDS011;64834;52.516;10.528;2023-05-17T09:58:30;4.60;;;1.27;;
76107;SDS011;64834;52.516;10.528;2023-05-17T10:01:00;4.20;;;0.52;;
76107;SDS011;64834;52.516;10.528;2023-05-17T10:03:45;2.97;;;0.82;;
76107;SDS011;64834;52.516;10.528;2023-05-17T10:06:11;2.58;;;0.55;;
76107;SDS011;64834;52.516;10.528;2023-05-17T10:08:40;2.22;;;0.73;;
76107;SDS011;64834;52.516;10.528;2023-05-17T10:11:08;5.10;;;0.65;;
76107;SDS011;64834;52.516;10.528;2023-05-17T10:13:35;3.15;;;0.90;;
76107;SDS011;64834;52.516;10.528;2023-05-17T10:16:06;3.67;;;0.95;;
76107;SDS011;64834;52.516;10.528;2023-05-17T10:18:31;4.80;;;0.65;;
76107;SDS011;64834;52.516;10.528;2023-05-17T10:20:57;5.15;;;0.85;;
76107;SDS011;64834;52.516;10.528;2023-05-17T10:23:25;4.03;;;0.70;;
76107;SDS011;64834;52.516;10.528;2023-05-17T10:25:51;5.80;;;1.00;;
76107;SDS011;64834;52.516;10.528;2023-05-17T10:28:17;3.20;;;0.73;;
76107;SDS011;64834;52.516;10.528;2023-05-17T10:30:44;3.45;;;0.60;;
76107;SDS011;64834;52.516;10.528;2023-05-17T10:33:11;7.63;;;0.70;;
76107;SDS011;64834;52.516;10.528;2023-05-17T10:35:37;4.75;;;1.05;;
76107;SDS011;64834;52.516;10.528;2023-05-17T10:38:03;4.07;;;0.70;;
76107;SDS011;64834;52.516;10.528;2023-05-17T10:40:28;4.22;;;0.65;;
76107;SDS011;64834;52.516;10.528;2023-05-17T10:42:55;3.85;;;0.52;;
76107;SDS011;64834;52.516;10.528;2023-05-17T10:45:24;2.65;;;1.42;;
76107;SDS011;64834;52.516;10.528;2023-05-17T10:47:51;3.97;;;0.90;;
76107;SDS011;64834;52.516;10.528;2023-05-17T10:50:21;3.20;;;0.65;;
76107;SDS011;64834;52.516;10.528;2023-05-17T10:52:48;3.85;;;0.73;;
76107;SDS011;64834;52.516;10.528;2023-05-17T10:55:18;7.68;;;0.95;;
76107;SDS011;64834;52.516;10.528;2023-05-17T10:57:48;4.43;;;0.63;;
76107;SDS011;64834;52.516;10.528;2023-05-17T11:00:37;2.70;;;0.70;;
76107;SDS011;64834;52.516;10.528;2023-05-17T11:03:13;3.15;;;0.60;;
76107;SDS011;64834;52.516;10.528;2023-05-17T11:05:41;1.88;;;0.65;;
76107;SDS011;64834;52.516;10.528;2023-05-17T11:08:12;3.35;;;0.60;;
76107;SDS011;64834;52.516;10.528;2023-05-17T11:11:02;6.47;;;0.73;;
76107;SDS011;64834;52.516;10.528;2023-05-17T11:16:16;5.53;;;0.82;;
76107;SDS011;64834;52.516;10.528;2023-05-17T11:18:48;3.35;;;0.70;;
76107;SDS011;64834;52.516;10.528;2023-05-17T11:21:14;9.30;;;0.95;;
76107;SDS011;64834;52.516;10.528;2023-05-17T11:23:41;4.03;;;0.90;;
76107;SDS011;64834;52.516;10.528;2023-05-17T11:26:11;3.20;;;0.82;;
76107;SDS011;64834;52.516;10.528;2023-05-17T11:29:05;2.03;;;0.47;;
76107;SDS011;64834;52.516;10.528;2023-05-17T11:31:32;2.60;;;0.68;;
76107;SDS011;64834;52.516;10.528;2023-05-17T11:34:01;3.20;;;0.88;;
76107;SDS011;64834;52.516;10.528;2023-05-17T11:36:27;5.10;;;1.25;;
76107;SDS011;64834;52.516;10.528;2023-05-17T11:39:09;3.75;;;0.93;;
76107;SDS011;64834;52.516;10.528;2023-05-17T11:41:36;3.33;;;0.70;;
76107;SDS011;64834;52.516;10.528;2023-05-17T11:44:05;3.50;;;0.70;;
76107;SDS011;64834;52.516;10.528;2023-05-17T11:46:32;4.65;;;0.73;;
76107;SDS011;64834;52.516;10.528;2023-05-17T11:48:57;5.07;;;1.00;;
76107;SDS011;64834;52.516;10.528;2023-05-17T11:51:23;4.15;;;0.70;;
76107;SDS011;64834;52.516;10.528;2023-05-17T11:53:49;3.97;;;0.85;;
76107;SDS011;64834;52.516;10.528;2023-05-17T11:56:15;5.93;;;0.80;;
76107;SDS011;64834;52.516;10.528;2023-05-17T11:58:40;2.65;;;0.65;;
76107;SDS011;64834;52.516;10.528;2023-05-17T12:01:07;1.63;;;0.50;;
76107;SDS011;64834;52.516;10.528;2023-05-17T12:03:33;2.28;;;0.85;;
76107;SDS011;64834;52.516;10.528;2023-05-17T12:06:06;3.22;;;0.68;;
76107;SDS011;64834;52.516;10.528;2023-05-17T12:10:59;2.58;;;0.82;;
76107;SDS011;64834;52.516;10.528;2023-05-17T12:13:29;2.83;;;0.60;;
76107;SDS011;64834;52.516;10.528;2023-05-17T12:15:56;4.43;;;0.70;;
76107;SDS011;64834;52.516;10.528;2023-05-17T12:18:40;4.82;;;1.00;;
76107;SDS011;64834;52.516;10.528;2023-05-17T12:21:07;2.30;;;0.60;;
76107;SDS011;64834;52.516;10.528;2023-05-17T12:23:36;2.30;;;0.50;;
76107;SDS011;64834;52.516;10.528;2023-05-17T12:28:34;5.07;;;0.80;;
76107;SDS011;64834;52.516;10.528;2023-05-17T12:31:00;5.00;;;0.90;;
76107;SDS011;64834;52.516;10.528;2023-05-17T12:33:30;2.72;;;0.60;;
76107;SDS011;64834;52.516;10.528;2023-05-17T12:35:59;3.72;;;0.60;;
76107;SDS011;64834;52.516;10.528;2023-05-17T12:38:26;3.15;;;0.70;;
76107;SDS011;64834;52.516;10.528;2023-05-17T12:40:52;2.92;;;0.77;;
76107;SDS011;64834;52.516;10.528;2023-05-17T12:43:21;7.55;;;1.52;;
76107;SDS011;64834;52.516;10.528;2023-05-17T12:45:48;5.03;;;1.10;;
76107;SDS011;64834;52.516;10.528;2023-05-17T12:48:13;3.38;;;0.80;;
76107;SDS011;64834;52.516;10.528;2023-05-17T12:50:40;2.58;;;0.85;;
76107;SDS011;64834;52.516;10.528;2023-05-17T12:53:09;4.78;;;1.13;;
76107;SDS011;64834;52.516;10.528;2023-05-17T12:55:35;6.65;;;0.90;;
76107;SDS011;64834;52.516;10.528;2023-05-17T12:58:02;3.60;;;1.40;;
76107;SDS011;64834;52.516;10.528;2023-05-17T13:00:28;3.83;;;0.82;;
76107;SDS011;64834;52.516;10.528;2023-05-17T13:02:54;2.35;;;0.70;;
76107;SDS011;64834;52.516;10.528;2023-05-17T13:05:19;2.25;;;0.55;;
76107;SDS011;64834;52.516;10.528;2023-05-17T13:07:48;3.45;;;1.55;;
76107;SDS011;64834;52.516;10.528;2023-05-17T13:10:20;4.88;;;0.82;;
76107;SDS011;64834;52.516;10.528;2023-05-17T13:12:58;5.55;;;0.90;;
76107;SDS011;64834;52.516;10.528;2023-05-17T13:15:31;4.55;;;1.00;;
76107;SDS011;64834;52.516;10.528;2023-05-17T13:17:57;1.88;;;0.47;;
76107;SDS011;64834;52.516;10.528;2023-05-17T13:20:24;3.25;;;0.70;;
76107;SDS011;64834;52.516;10.528;2023-05-17T13:22:51;3.55;;;0.95;;
76107;SDS011;64834;52.516;10.528;2023-05-17T13:25:16;3.97;;;0.50;;
76107;SDS011;64834;52.516;10.528;2023-05-17T13:27:43;1.45;;;0.50;;
76107;SDS011;64834;52.516;10.528;2023-05-17T13:30:12;2.40;;;0.63;;
76107;SDS011;64834;52.516;10.528;2023-05-17T13:32:40;5.35;;;0.90;;
76107;SDS011;64834;52.516;10.528;2023-05-17T13:35:06;2.28;;;0.60;;
76107;SDS011;64834;52.516;10.528;2023-05-17T13:37:32;2.78;;;0.57;;
76107;SDS011;64834;52.516;10.528;2023-05-17T13:39:57;2.28;;;0.30;;
76107;SDS011;64834;52.516;10.528;2023-05-17T13:42:22;2.00;;;0.55;;
76107;SDS011;64834;52.516;10.528;2023-05-17T13:44:48;3.58;;;1.08;;
76107;SDS011;64834;52.516;10.528;2023-05-17T13:47:13;7.80;;;1.00;;
76107;SDS011;64834;52.516;10.528;2023-05-17T13:49:39;5.05;;;0.90;;
76107;SDS011;64834;52.516;10.528;2023-05-17T13:52:05;3.53;;;0.82;;
76107;SDS011;64834;52.516;10.528;2023-05-17T13:54:34;3.22;;;0.82;;
76107;SDS011;64834;52.516;10.528;2023-05-17T13:57:00;3.65;;;0.93;;
76107;SDS011;64834;52.516;10.528;2023-05-17T13:59:26;2.80;;;0.63;;
76107;SDS011;64834;52.516;10.528;2023-05-17T14:01:51;2.53;;;0.60;;
76107;SDS011;64834;52.516;10.528;2023-05-17T14:04:16;2.20;;;0.50;;
76107;SDS011;64834;52.516;10.528;2023-05-17T14:06:42;4.72;;;0.95;;
76107;SDS011;64834;52.516;10.528;2023-05-17T14:09:07;3.60;;;0.75;;
76107;SDS011;64834;52.516;10.528;2023-05-17T14:11:33;1.80;;;0.80;;
76107;SDS011;64834;52.516;10.528;2023-05-17T14:13:58;2.30;;;0.65;;
76107;SDS011;64834;52.516;10.528;2023-05-17T14:16:25;3.88;;;0.80;;
76107;SDS011;64834;52.516;10.528;2023-05-17T14:18:50;4.95;;;0.90;;
76107;SDS011;64834;52.516;10.528;2023-05-17T14:21:15;2.67;;;0.70;;
76107;SDS011;64834;52.516;10.528;2023-05-17T14:23:41;2.97;;;0.70;;
76107;SDS011;64834;52.516;10.528;2023-05-17T14:26:06;1.80;;;0.40;;
76107;SDS011;64834;52.516;10.528;2023-05-17T14:28:32;1.95;;;0.35;;
76107;SDS011;64834;52.516;10.528;2023-05-17T14:30:59;2.28;;;0.70;;
76107;SDS011;64834;52.516;10.528;2023-05-17T14:33:25;2.00;;;0.47;;
76107;SDS011;64834;52.516;10.528;2023-05-17T14:35:52;5.95;;;0.68;;
76107;SDS011;64834;52.516;10.528;2023-05-17T14:38:17;2.42;;;0.65;;
76107;SDS011;64834;52.516;10.528;2023-05-17T14:40:44;6.35;;;1.08;;
76107;SDS011;64834;52.516;10.528;2023-05-17T14:43:09;1.40;;;0.65;;
76107;SDS011;64834;52.516;10.528;2023-05-17T14:45:35;5.78;;;0.95;;
76107;SDS011;64834;52.516;10.528;2023-05-17T14:48:00;2.63;;;0.52;;
76107;SDS011;64834;52.516;10.528;2023-05-17T14:50:25;2.80;;;0.80;;
76107;SDS011;64834;52.516;10.528;2023-05-17T14:52:51;3.15;;;0.68;;